Time;durP1;ratioP1;P1;durP2;ratioP2;P2;SDS_P1;SDS_P2;PMS_P1;PMS_P2;Temp;Humidity;BMP_temperature;BMP_pressure;BME280_temperature;BME280_humidity;BME280_pressure;Samples;Min_cycle;Max_cycle;Signal;HPM_P1;HPM_P2
2022/08/11 00:00:35;;;;;;;;;;;;;;;;;;2115568;28;19967;-44
2022/08/11 00:01:35;;;;;;;;;;;;;;;;;;2115607;28;20339;-44
2022/08/11 00:02:36;;;;;;;;;;;;;;;;;;2115558;28;20382;-45
2022/08/11 00:03:38;;;;;;;;;;;;;;;;;;2115862;28;20356;-45
2022/08/11 00:04:42;;;;;;;;;;;;;;;;;;2115451;28;20043;-44
2022/08/11 00:05:43;;;;;;;;;;;;;;;;;;2115453;28;19999;-44
2022/08/11 00:06:44;;;;;;;;;;;;;;;;;;2115577;28;19959;-46
2022/08/11 00:07:45;;;;;;;;;;;;;;;;;;2115625;28;20353;-44
2022/08/11 00:08:46;;;;;;;;;;;;;;;;;;2115407;28;20428;-45
2022/08/11 00:09:47;;;;;;;;;;;;;;;;;;2115696;28;20365;-44
2022/08/11 00:10:48;;;;;;;;;;;;;;;;;;2115550;28;19934;-46
2022/08/11 00:11:49;;;;;;;;;;;;;;;;;;2107885;28;19981;-44
2022/08/11 00:12:50;;;;;;;;;;;;;;;;;;2107127;28;19924;-46
2022/08/11 00:13:51;;;;;;;;;;;;;;;;;;2107052;28;19924;-44
2022/08/11 00:14:51;;;;;;;;;;;;;;;;;;2107058;28;19924;-45
2022/08/11 00:15:52;;;;;;;;;;;;;;;;;;2107291;28;20293;-47
2022/08/11 00:16:53;;;;;;;;;;;;;;;;;;2106985;28;19932;-45
2022/08/11 00:17:54;;;;;;;;;;;;;;;;;;2107018;28;20010;-45
2022/08/11 00:18:55;;;;;;;;;;;;;;;;;;2107026;28;19963;-45
2022/08/11 00:19:57;;;;;;;;;;;;;;;;;;2110209;28;20016;-45
2022/08/11 00:21:16;;;;;;;;;;;;;;;;;;2115398;28;19927;-46
2022/08/11 00:22:16;;;;;;;;;;;;;;;;;;2115537;28;20282;-46
2022/08/11 00:23:17;;;;;;;;;;;;;;;;;;2115294;28;19928;-45
2022/08/11 00:24:19;;;;;;;;;;;;;;;;;;2115408;28;19923;-46
2022/08/11 00:25:20;;;;;;;;;;;;;;;;;;2115329;28;20472;-46
2022/08/11 00:26:21;;;;;;;;;;;;;;;;;;2115253;28;19931;-46
2022/08/11 00:27:22;;;;;;;;;;;;;;;;;;2115697;28;19924;-45
2022/08/11 00:28:23;;;;;;;;;;;;;;;;;;2115336;28;20038;-45
2022/08/11 00:29:24;;;;;;;;;;;;;;;;;;2115299;28;19967;-46
2022/08/11 00:30:25;;;;;;;;;;;;;;;;;;2115453;28;20006;-46
2022/08/11 00:31:26;;;;;;;;;;;;;;;;;;2115315;28;19924;-45
2022/08/11 00:32:26;;;;;;;;;;;;;;;;;;2115177;28;20022;-46
2022/08/11 00:33:27;;;;;;;;;;;;;;;;;;2115552;28;20377;-45
2022/08/11 00:34:41;;;;;;;;;;;;;;;;;;2115383;28;19931;-45
2022/08/11 00:35:42;;;;;;;;;;;;;;;;;;2115462;28;20010;-45
2022/08/11 00:36:56;;;;;;;;;;;;;;;;;;2115374;28;20144;-45
2022/08/11 00:37:57;;;;;;;;;;;;;;;;;;2115249;28;20359;-45
2022/08/11 00:38:58;;;;;;;;;;;;;;;;;;2115157;28;19998;-46
2022/08/11 00:39:59;;;;;;;;;;;;;;;;;;2115370;28;19923;-46
2022/08/11 00:41:00;;;;;;;;;;;;;;;;;;2115214;28;19923;-45
2022/08/11 00:42:01;;;;;;;;;;;;;;;;;;2115245;28;20010;-45
2022/08/11 00:43:01;;;;;;;;;;;;;;;;;;2115184;28;19928;-45
2022/08/11 00:44:02;;;;;;;;;;;;;;;;;;2115265;28;19935;-46
2022/08/11 00:45:03;;;;;;;;;;;;;;;;;;2115470;28;19924;-46
2022/08/11 00:46:04;;;;;;;;;;;;;;;;;;2115278;28;19962;-46
2022/08/11 00:47:05;;;;;;;;;;;;;;;;;;2115138;28;19985;-45
2022/08/11 00:48:06;;;;;;;;;;;;;;;;;;2115266;28;19924;-45
2022/08/11 00:49:07;;;;;;;;;;;;;;;;;;2115224;28;20378;-47
2022/08/11 00:50:08;;;;;;;;;;;;;;;;;;2115383;28;20018;-46
2022/08/11 00:51:09;;;;;;;;;;;;;;;;;;2114972;28;20011;-45
2022/08/11 00:52:10;;;;;;;;;;;;;;;;;;2115185;28;19924;-45
2022/08/11 00:53:11;;;;;;;;;;;;;;;;;;2115170;28;20026;-44
2022/08/11 00:54:12;;;;;;;;;;;;;;;;;;2115089;28;19930;-43
2022/08/11 00:55:12;;;;;;;;;;;;;;;;;;2115156;28;19924;-43
2022/08/11 00:56:13;;;;;;;;;;;;;;;;;;2115056;28;20023;-44
2022/08/11 00:57:14;;;;;;;;;;;;;;;;;;2115268;28;19924;-45
2022/08/11 00:58:35;;;;;;;;;;;;;;;;;;2115198;28;19969;-43
2022/08/11 00:59:36;;;;;;;;;;;;;;;;;;2115046;28;20056;-44
2022/08/11 01:00:37;;;;;;;;;;;;;;;;;;2114965;28;20335;-46
2022/08/11 01:01:38;;;;;;;;;;;;;;;;;;2115024;28;20010;-44
2022/08/11 01:02:39;;;;;;;;;;;;;;;;;;2115116;28;19970;-43
2022/08/11 01:03:40;;;;;;;;;;;;;;;;;;2115170;28;19963;-44
2022/08/11 01:04:41;;;;;;;;;;;;;;;;;;2115188;28;20010;-44
2022/08/11 01:05:42;;;;;;;;;;;;;;;;;;2115035;28;20377;-47
2022/08/11 01:06:43;;;;;;;;;;;;;;;;;;2114943;28;20020;-45
2022/08/11 01:07:43;;;;;;;;;;;;;;;;;;2115123;28;19997;-44
2022/08/11 01:09:03;;;;;;;;;;;;;;;;;;2115044;28;19924;-45
2022/08/11 01:10:04;;;;;;;;;;;;;;;;;;2115309;28;20014;-45
2022/08/11 01:11:07;;;;;;;;;;;;;;;;;;2113504;28;19955;-45
2022/08/11 01:12:08;;;;;;;;;;;;;;;;;;2106544;28;19970;-46
2022/08/11 01:13:09;;;;;;;;;;;;;;;;;;2106647;28;19931;-45
2022/08/11 01:14:10;;;;;;;;;;;;;;;;;;2106574;28;19959;-45
2022/08/11 01:15:11;;;;;;;;;;;;;;;;;;2106703;28;19969;-45
2022/08/11 01:16:12;;;;;;;;;;;;;;;;;;2109719;28;20369;-45
2022/08/11 01:17:13;;;;;;;;;;;;;;;;;;2114967;28;20079;-45
2022/08/11 01:18:14;;;;;;;;;;;;;;;;;;2115047;28;19930;-45
2022/08/11 01:19:15;;;;;;;;;;;;;;;;;;2114912;28;20296;-46
2022/08/11 01:20:16;;;;;;;;;;;;;;;;;;2115010;28;20323;-46
2022/08/11 01:21:37;;;;;;;;;;;;;;;;;;2114746;28;20304;-45
2022/08/11 01:22:39;;;;;;;;;;;;;;;;;;2115100;28;19924;-45
2022/08/11 01:23:40;;;;;;;;;;;;;;;;;;2114990;28;19924;-46
2022/08/11 01:24:40;;;;;;;;;;;;;;;;;;2114828;28;19946;-45
2022/08/11 01:25:41;;;;;;;;;;;;;;;;;;2114861;28;19931;-45
2022/08/11 01:26:57;;;;;;;;;;;;;;;;;;2115003;28;19957;-45
2022/08/11 01:27:59;;;;;;;;;;;;;;;;;;2115016;28;20014;-45
2022/08/11 01:29:00;;;;;;;;;;;;;;;;;;2115268;28;20006;-45
2022/08/11 01:30:02;;;;;;;;;;;;;;;;;;2114934;28;19931;-44
2022/08/11 01:31:03;;;;;;;;;;;;;;;;;;2115011;28;20344;-45
2022/08/11 01:32:04;;;;;;;;;;;;;;;;;;2114960;28;19968;-45
2022/08/11 01:33:05;;;;;;;;;;;;;;;;;;2114987;28;19924;-44
2022/08/11 01:34:06;;;;;;;;;;;;;;;;;;2114972;28;19968;-44
2022/08/11 01:35:07;;;;;;;;;;;;;;;;;;2114722;28;19928;-45
2022/08/11 01:36:08;;;;;;;;;;;;;;;;;;2114781;28;20026;-45
2022/08/11 01:37:09;;;;;;;;;;;;;;;;;;2114823;28;20018;-45
2022/08/11 01:38:10;;;;;;;;;;;;;;;;;;2114295;28;20006;-44
2022/08/11 01:39:11;;;;;;;;;;;;;;;;;;2114743;28;19924;-44
2022/08/11 01:40:12;;;;;;;;;;;;;;;;;;2114954;28;19953;-46
2022/08/11 01:41:12;;;;;;;;;;;;;;;;;;2114845;28;20056;-45
2022/08/11 01:44:52;;;;;;;;;;;;;;;;;;2114786;28;19998;-44
2022/08/11 01:45:53;;;;;;;;;;;;;;;;;;2114883;28;19953;-45
2022/08/11 01:46:54;;;;;;;;;;;;;;;;;;2114876;28;19924;-44
2022/08/11 01:47:54;;;;;;;;;;;;;;;;;;2114746;28;19952;-45
2022/08/11 01:48:55;;;;;;;;;;;;;;;;;;2115010;28;20341;-45
2022/08/11 01:49:56;;;;;;;;;;;;;;;;;;2114778;28;19951;-44
2022/08/11 01:51:10;;;;;;;;;;;;;;;;;;2114834;28;19931;-44
2022/08/11 01:52:17;;;;;;;;;;;;;;;;;;2114876;28;19927;-45
2022/08/11 01:53:18;;;;;;;;;;;;;;;;;;2114906;28;20014;-44
2022/08/11 01:54:19;;;;;;;;;;;;;;;;;;2114687;28;20019;-44
2022/08/11 01:55:22;;;;;;;;;;;;;;;;;;2114729;28;19958;-44
2022/08/11 01:56:23;;;;;;;;;;;;;;;;;;2114817;28;19928;-45
2022/08/11 01:57:24;;;;;;;;;;;;;;;;;;2114670;28;20398;-44
2022/08/11 01:58:25;;;;;;;;;;;;;;;;;;2114626;28;20390;-44
2022/08/11 01:59:47;;;;;;;;;;;;;;;;;;2114661;28;19931;-44
2022/08/11 02:00:48;;;;;;;;;;;;;;;;;;2114754;28;20003;-45
2022/08/11 02:01:49;;;;;;;;;;;;;;;;;;2114715;28;19930;-44
2022/08/11 02:02:52;;;;;;;;;;;;;;;;;;2114800;28;20018;-44
2022/08/11 02:03:53;;;;;;;;;;;;;;;;;;2114573;28;20502;-45
2022/08/11 02:04:54;;;;;;;;;;;;;;;;;;2114874;28;19985;-45
2022/08/11 02:05:59;;;;;;;;;;;;;;;;;;2114656;28;19923;-45
2022/08/11 02:07:01;;;;;;;;;;;;;;;;;;2114690;28;20158;-44
2022/08/11 02:08:02;;;;;;;;;;;;;;;;;;2114819;28;20014;-44
2022/08/11 02:09:03;;;;;;;;;;;;;;;;;;2114788;28;20004;-44
2022/08/11 02:11:29;;;;;;;;;;;;;;;;;;2114775;28;19928;-44
2022/08/11 02:11:32;;;;;;;;;;;;;;;;;;2114669;28;19976;-44
2022/08/11 02:12:36;;;;;;;;;;;;;;;;;;2114775;28;19924;-44
2022/08/11 02:13:37;;;;;;;;;;;;;;;;;;2114585;28;19929;-44
2022/08/11 02:14:38;;;;;;;;;;;;;;;;;;2114751;28;19924;-44
2022/08/11 02:15:39;;;;;;;;;;;;;;;;;;2114597;28;20413;-44
2022/08/11 02:16:39;;;;;;;;;;;;;;;;;;2114715;28;19969;-45
2022/08/11 02:17:40;;;;;;;;;;;;;;;;;;2114852;28;19962;-45
2022/08/11 02:23:59;;;;;;;;;;;;;;;;;;2114837;28;20019;-44
2022/08/11 02:25:06;;;;;;;;;;;;;;;;;;2114776;28;19924;-44
2022/08/11 02:26:07;;;;;;;;;;;;;;;;;;2114380;28;19980;-44
2022/08/11 02:27:08;;;;;;;;;;;;;;;;;;2114575;28;20384;-44
2022/08/11 02:28:09;;;;;;;;;;;;;;;;;;2114701;28;19924;-44
2022/08/11 02:29:10;;;;;;;;;;;;;;;;;;2114459;28;20369;-44
2022/08/11 02:30:11;;;;;;;;;;;;;;;;;;2114923;28;19970;-45
2022/08/11 02:34:22;;;;;;;;;;;;;;;;;;2088290;28;20033;-44
2022/08/11 02:35:23;;;;;;;;;;;;;;;;;;2105073;28;20015;-47
2022/08/11 02:36:24;;;;;;;;;;;;;;;;;;2115106;28;19935;-45
2022/08/11 02:37:25;;;;;;;;;;;;;;;;;;2114409;28;19959;-44
2022/08/11 02:38:26;;;;;;;;;;;;;;;;;;2114618;28;19924;-44
2022/08/11 02:39:27;;;;;;;;;;;;;;;;;;2114440;28;19936;-44
2022/08/11 02:40:30;;;;;;;;;;;;;;;;;;2114673;28;20002;-44
2022/08/11 02:42:50;;;;;;;;;;;;;;;;;;2114840;28;19924;-44
2022/08/11 02:43:51;;;;;;;;;;;;;;;;;;2114465;28;20006;-44
2022/08/11 02:44:52;;;;;;;;;;;;;;;;;;2114720;28;20429;-44
2022/08/11 02:45:53;;;;;;;;;;;;;;;;;;2114700;28;20444;-44
2022/08/11 02:46:54;;;;;;;;;;;;;;;;;;2114536;28;19928;-45
2022/08/11 02:50:34;;;;;;;;;;;;;;;;;;2115540;28;19928;-44
2022/08/11 02:51:35;;;;;;;;;;;;;;;;;;2116389;28;19924;-44
2022/08/11 02:52:35;;;;;;;;;;;;;;;;;;2116223;28;19923;-45
2022/08/11 02:53:37;;;;;;;;;;;;;;;;;;2116136;28;19924;-47
2022/08/11 02:54:37;;;;;;;;;;;;;;;;;;2116332;28;19927;-44
2022/08/11 02:55:38;;;;;;;;;;;;;;;;;;2116020;28;19931;-44
2022/08/11 02:56:45;;;;;;;;;;;;;;;;;;2115981;28;20384;-44
2022/08/11 02:57:46;;;;;;;;;;;;;;;;;;2116125;28;19963;-44
2022/08/11 02:59:48;;;;;;;;;;;;;;;;;;2116268;28;20019;-45
2022/08/11 03:00:07;;;;;;;;;;;;;;;;;;2116167;28;19965;-45
2022/08/11 03:01:10;;;;;;;;;;;;;;;;;;2115842;28;20368;-45
2022/08/11 03:02:11;;;;;;;;;;;;;;;;;;2116023;28;20000;-44
2022/08/11 03:03:12;;;;;;;;;;;;;;;;;;2116256;28;19959;-44
2022/08/11 03:04:15;;;;;;;;;;;;;;;;;;2115951;28;20418;-44
2022/08/11 03:05:16;;;;;;;;;;;;;;;;;;2115799;28;20073;-44
2022/08/11 03:06:17;;;;;;;;;;;;;;;;;;2115788;28;19971;-44
2022/08/11 03:07:18;;;;;;;;;;;;;;;;;;2115896;28;20069;-44
2022/08/11 03:08:29;;;;;;;;;;;;;;;;;;2115694;28;20383;-44
2022/08/11 03:09:30;;;;;;;;;;;;;;;;;;2116010;28;19924;-44
2022/08/11 03:10:31;;;;;;;;;;;;;;;;;;2113249;28;20364;-44
2022/08/11 03:17:01;;;;;;;;;;;;;;;;;;2106799;28;20019;-44
2022/08/11 03:18:01;;;;;;;;;;;;;;;;;;2107316;28;19924;-45
2022/08/11 03:19:02;;;;;;;;;;;;;;;;;;2107679;28;19924;-45
2022/08/11 03:20:03;;;;;;;;;;;;;;;;;;2107396;28;20369;-45
2022/08/11 03:21:04;;;;;;;;;;;;;;;;;;2107430;28;20019;-44
2022/08/11 03:22:05;;;;;;;;;;;;;;;;;;2107891;28;20010;-45
2022/08/11 03:23:07;;;;;;;;;;;;;;;;;;2107483;28;20431;-44
2022/08/11 03:24:19;;;;;;;;;;;;;;;;;;2107493;28;19928;-44
2022/08/11 03:25:20;;;;;;;;;;;;;;;;;;2107677;28;20050;-44
2022/08/11 03:26:22;;;;;;;;;;;;;;;;;;2107325;28;19932;-44
2022/08/11 03:27:23;;;;;;;;;;;;;;;;;;2107508;28;20033;-45
2022/08/11 03:28:24;;;;;;;;;;;;;;;;;;2107622;28;19956;-45
2022/08/11 03:29:25;;;;;;;;;;;;;;;;;;2107517;28;20007;-44
2022/08/11 03:30:26;;;;;;;;;;;;;;;;;;2107400;28;19924;-45
2022/08/11 03:31:27;;;;;;;;;;;;;;;;;;2107415;28;20350;-46
2022/08/11 03:32:28;;;;;;;;;;;;;;;;;;2107251;28;20395;-46
2022/08/11 03:34:49;;;;;;;;;;;;;;;;;;2107363;28;20397;-45
2022/08/11 03:35:49;;;;;;;;;;;;;;;;;;2107080;28;19928;-44
2022/08/11 03:36:51;;;;;;;;;;;;;;;;;;2107448;28;19924;-44
2022/08/11 03:38:12;;;;;;;;;;;;;;;;;;2107084;28;20258;-44
2022/08/11 03:39:12;;;;;;;;;;;;;;;;;;2107144;28;19966;-44
2022/08/11 03:40:13;;;;;;;;;;;;;;;;;;2107377;28;19924;-45
2022/08/11 03:42:54;;;;;;;;;;;;;;;;;;2107287;28;19932;-45
2022/08/11 03:43:54;;;;;;;;;;;;;;;;;;2107189;28;19924;-44
2022/08/11 03:44:59;;;;;;;;;;;;;;;;;;2107654;28;20039;-44
2022/08/11 03:46:00;;;;;;;;;;;;;;;;;;2107251;28;20373;-45
2022/08/11 03:47:01;;;;;;;;;;;;;;;;;;2107227;28;19924;-44
2022/08/11 03:48:02;;;;;;;;;;;;;;;;;;2107377;28;20005;-45
2022/08/11 03:49:03;;;;;;;;;;;;;;;;;;2107498;28;19924;-44
2022/08/11 03:50:03;;;;;;;;;;;;;;;;;;2107354;28;19947;-44
2022/08/11 03:51:04;;;;;;;;;;;;;;;;;;2107257;28;19932;-44
2022/08/11 03:52:05;;;;;;;;;;;;;;;;;;2107412;28;19925;-44
2022/08/11 03:53:06;;;;;;;;;;;;;;;;;;2107493;28;20334;-45
2022/08/11 03:54:08;;;;;;;;;;;;;;;;;;2107283;28;20373;-45
2022/08/11 03:55:09;;;;;;;;;;;;;;;;;;2107263;28;19981;-44
2022/08/11 03:56:10;;;;;;;;;;;;;;;;;;2107291;28;19924;-45
2022/08/11 03:57:11;;;;;;;;;;;;;;;;;;2107052;28;20373;-45
2022/08/11 03:58:12;;;;;;;;;;;;;;;;;;2107222;28;19925;-44
2022/08/11 03:59:16;;;;;;;;;;;;;;;;;;2107419;28;19924;-46
2022/08/11 04:00:17;;;;;;;;;;;;;;;;;;2107152;28;19930;-45
2022/08/11 04:01:18;;;;;;;;;;;;;;;;;;2106724;28;20023;-44
2022/08/11 04:02:18;;;;;;;;;;;;;;;;;;2107377;28;19928;-44
2022/08/11 04:03:19;;;;;;;;;;;;;;;;;;2107161;28;19964;-45
2022/08/11 04:04:20;;;;;;;;;;;;;;;;;;2107098;28;20363;-45
2022/08/11 04:05:23;;;;;;;;;;;;;;;;;;2113470;28;20011;-44
2022/08/11 04:06:24;;;;;;;;;;;;;;;;;;2115353;28;19966;-45
2022/08/11 04:07:25;;;;;;;;;;;;;;;;;;2115342;28;19931;-44
2022/08/11 04:08:26;;;;;;;;;;;;;;;;;;2115632;28;19969;-45
2022/08/11 04:09:27;;;;;;;;;;;;;;;;;;2115511;28;19924;-46
2022/08/11 04:10:28;;;;;;;;;;;;;;;;;;2115403;28;20394;-44
2022/08/11 04:11:29;;;;;;;;;;;;;;;;;;2111118;28;19967;-44
2022/08/11 04:12:29;;;;;;;;;;;;;;;;;;2106899;28;19924;-44
2022/08/11 04:13:37;;;;;;;;;;;;;;;;;;2107649;28;19943;-44
2022/08/11 04:16:01;;;;;;;;;;;;;;;;;;2107347;28;20347;-45
2022/08/11 04:17:12;;;;;;;;;;;;;;;;;;2107026;28;19966;-45
2022/08/11 04:18:13;;;;;;;;;;;;;;;;;;2107346;28;19924;-44
2022/08/11 04:19:14;;;;;;;;;;;;;;;;;;2107414;28;20061;-46
2022/08/11 04:20:15;;;;;;;;;;;;;;;;;;2106979;28;19978;-46
2022/08/11 04:21:16;;;;;;;;;;;;;;;;;;2106915;28;20476;-46
2022/08/11 04:22:17;;;;;;;;;;;;;;;;;;2107906;28;19956;-45
2022/08/11 04:23:18;;;;;;;;;;;;;;;;;;2106938;28;19935;-46
2022/08/11 04:24:39;;;;;;;;;;;;;;;;;;2106852;28;20430;-45
2022/08/11 04:25:40;;;;;;;;;;;;;;;;;;2106986;28;19932;-45
2022/08/11 04:26:41;;;;;;;;;;;;;;;;;;2106885;28;20381;-46
2022/08/11 04:27:41;;;;;;;;;;;;;;;;;;2106877;28;20018;-46
2022/08/11 04:28:42;;;;;;;;;;;;;;;;;;2107158;28;19931;-45
2022/08/11 04:29:50;;;;;;;;;;;;;;;;;;2107105;28;19947;-44
2022/08/11 04:31:01;;;;;;;;;;;;;;;;;;2107044;28;20444;-46
2022/08/11 04:32:02;;;;;;;;;;;;;;;;;;2107005;28;19930;-45
2022/08/11 04:33:03;;;;;;;;;;;;;;;;;;2107255;28;19963;-46
2022/08/11 04:34:05;;;;;;;;;;;;;;;;;;2107072;28;20061;-44
2022/08/11 04:35:06;;;;;;;;;;;;;;;;;;2106882;28;19962;-45
2022/08/11 04:36:08;;;;;;;;;;;;;;;;;;2106902;28;20014;-44
2022/08/11 04:38:28;;;;;;;;;;;;;;;;;;2106845;28;20381;-46
2022/08/11 04:39:29;;;;;;;;;;;;;;;;;;2106898;28;19924;-45
2022/08/11 04:40:30;;;;;;;;;;;;;;;;;;2107295;28;19992;-44
2022/08/11 04:41:31;;;;;;;;;;;;;;;;;;2106654;28;19967;-45
2022/08/11 04:43:57;;;;;;;;;;;;;;;;;;2086387;28;20080;-45
2022/08/11 04:45:06;;;;;;;;;;;;;;;;;;2107200;28;19970;-45
2022/08/11 04:46:07;;;;;;;;;;;;;;;;;;2106708;28;20004;-45
2022/08/11 04:47:08;;;;;;;;;;;;;;;;;;2107028;28;20400;-46
2022/08/11 05:01:45;;;;;;;;;;;;;;;;;;2114307;28;20462;-45
2022/08/11 05:02:45;;;;;;;;;;;;;;;;;;2115114;28;19924;-45
2022/08/11 05:03:46;;;;;;;;;;;;;;;;;;2115087;28;20007;-46
2022/08/11 05:06:06;;;;;;;;;;;;;;;;;;2115106;28;19989;-44
2022/08/11 05:07:07;;;;;;;;;;;;;;;;;;2115110;28;19963;-44
2022/08/11 05:08:09;;;;;;;;;;;;;;;;;;2115447;28;20334;-45
2022/08/11 05:09:10;;;;;;;;;;;;;;;;;;2115026;28;20007;-44
2022/08/11 05:10:11;;;;;;;;;;;;;;;;;;2114992;28;19984;-46
2022/08/11 05:11:12;;;;;;;;;;;;;;;;;;2112774;28;19945;-45
2022/08/11 05:12:13;;;;;;;;;;;;;;;;;;2106688;28;19924;-44
2022/08/11 05:34:54;;;;;;;;;;;;;;;;;;2106933;28;20276;-44
2022/08/11 05:35:55;;;;;;;;;;;;;;;;;;2106441;28;20037;-46
2022/08/11 05:37:03;;;;;;;;;;;;;;;;;;2106413;28;20038;-46
2022/08/11 05:56:20;;;;;;;;;;;;;;;;;;2106262;28;19972;-46
2022/08/11 05:57:21;;;;;;;;;;;;;;;;;;2108791;28;19924;-45
2022/08/11 05:58:40;;;;;;;;;;;;;;;;;;2114824;28;19924;-46
2022/08/11 05:59:43;;;;;;;;;;;;;;;;;;2114849;28;19924;-46
2022/08/11 06:00:44;;;;;;;;;;;;;;;;;;2114710;28;19924;-45
2022/08/11 06:01:46;;;;;;;;;;;;;;;;;;2115135;28;19932;-46
2022/08/11 06:02:47;;;;;;;;;;;;;;;;;;2115063;28;19924;-45
2022/08/11 06:05:07;;;;;;;;;;;;;;;;;;2114614;28;19960;-46
2022/08/11 06:06:08;;;;;;;;;;;;;;;;;;2115006;28;20010;-44
2022/08/11 06:07:09;;;;;;;;;;;;;;;;;;2114706;28;20304;-44
2022/08/11 06:08:11;;;;;;;;;;;;;;;;;;2114961;28;19924;-46
2022/08/11 06:09:13;;;;;;;;;;;;;;;;;;2114842;28;20439;-46
2022/08/11 06:10:13;;;;;;;;;;;;;;;;;;2114908;28;20341;-45
2022/08/11 06:11:15;;;;;;;;;;;;;;;;;;2112271;28;19935;-46
2022/08/11 06:12:15;;;;;;;;;;;;;;;;;;2106616;28;19970;-45
2022/08/11 06:13:16;;;;;;;;;;;;;;;;;;2106272;28;20373;-46
2022/08/11 06:14:17;;;;;;;;;;;;;;;;;;2106322;28;19930;-46
2022/08/11 06:15:18;;;;;;;;;;;;;;;;;;2106456;28;19932;-45
2022/08/11 06:16:19;;;;;;;;;;;;;;;;;;2106311;28;20402;-44
2022/08/11 06:17:20;;;;;;;;;;;;;;;;;;2106508;28;19924;-47
2022/08/11 06:18:20;;;;;;;;;;;;;;;;;;2106208;28;20297;-45
2022/08/11 06:19:22;;;;;;;;;;;;;;;;;;2106312;28;19931;-45
2022/08/11 06:20:24;;;;;;;;;;;;;;;;;;2106147;28;20414;-47
2022/08/11 06:21:26;;;;;;;;;;;;;;;;;;2106316;28;19924;-45
2022/08/11 06:22:27;;;;;;;;;;;;;;;;;;2106763;28;19924;-46
2022/08/11 06:23:28;;;;;;;;;;;;;;;;;;2106514;28;19928;-45
2022/08/11 06:24:31;;;;;;;;;;;;;;;;;;2106111;28;19934;-46
2022/08/11 06:25:32;;;;;;;;;;;;;;;;;;2106153;28;20007;-45
2022/08/11 06:26:32;;;;;;;;;;;;;;;;;;2106081;28;20018;-46
2022/08/11 06:27:50;;;;;;;;;;;;;;;;;;2106164;28;19998;-45
2022/08/11 06:28:50;;;;;;;;;;;;;;;;;;2106197;28;20422;-45
2022/08/11 06:29:51;;;;;;;;;;;;;;;;;;2106081;28;19924;-46
2022/08/11 06:30:55;;;;;;;;;;;;;;;;;;2106362;28;19924;-45
2022/08/11 06:31:56;;;;;;;;;;;;;;;;;;2106116;28;20381;-45
2022/08/11 06:32:57;;;;;;;;;;;;;;;;;;2106478;28;20343;-46
2022/08/11 06:34:00;;;;;;;;;;;;;;;;;;2106348;28;19939;-46
2022/08/11 06:35:00;;;;;;;;;;;;;;;;;;2106287;28;19972;-49
2022/08/11 06:36:01;;;;;;;;;;;;;;;;;;2106134;28;19927;-46
2022/08/11 06:37:02;;;;;;;;;;;;;;;;;;2106223;28;20078;-47
2022/08/11 06:38:03;;;;;;;;;;;;;;;;;;2106214;28;19973;-47
2022/08/11 06:39:04;;;;;;;;;;;;;;;;;;2106046;28;20018;-46
2022/08/11 06:40:05;;;;;;;;;;;;;;;;;;2106170;28;19931;-45
2022/08/11 06:42:25;;;;;;;;;;;;;;;;;;2106275;28;20018;-46
2022/08/11 06:43:26;;;;;;;;;;;;;;;;;;2106123;28;20006;-46
2022/08/11 06:44:27;;;;;;;;;;;;;;;;;;2106031;28;19924;-45
2022/08/11 06:45:28;;;;;;;;;;;;;;;;;;2106222;28;19928;-46
2022/08/11 06:46:29;;;;;;;;;;;;;;;;;;2106386;28;19938;-45
2022/08/11 06:47:30;;;;;;;;;;;;;;;;;;2112785;28;20346;-46
2022/08/11 06:48:31;;;;;;;;;;;;;;;;;;2114753;28;19927;-45
2022/08/11 06:52:12;;;;;;;;;;;;;;;;;;2114720;28;19924;-47
2022/08/11 06:53:33;;;;;;;;;;;;;;;;;;2114617;28;19924;-46
2022/08/11 06:54:34;;;;;;;;;;;;;;;;;;2114728;28;20010;-46
2022/08/11 07:01:12;;;;;;;;;;;;;;;;;;2114474;28;20006;-46
2022/08/11 07:02:12;;;;;;;;;;;;;;;;;;2114510;28;19977;-48
2022/08/11 07:03:13;;;;;;;;;;;;;;;;;;2114457;28;19959;-48
2022/08/11 07:04:14;;;;;;;;;;;;;;;;;;2114524;28;20010;-46
2022/08/11 07:05:15;;;;;;;;;;;;;;;;;;2114385;28;19924;-46
2022/08/11 07:06:16;;;;;;;;;;;;;;;;;;2114405;28;20529;-47
2022/08/11 07:16:53;;;;;;;;;;;;;;;;;;2105862;28;20343;-46
2022/08/11 07:28:57;;;;;;;;;;;;;;;;;;2106270;28;19924;-46
2022/08/11 07:29:58;;;;;;;;;;;;;;;;;;2106173;28;19934;-45
2022/08/11 07:30:59;;;;;;;;;;;;;;;;;;2106170;28;20327;-45
2022/08/11 07:32:02;;;;;;;;;;;;;;;;;;2106156;28;19975;-46
2022/08/11 07:33:03;;;;;;;;;;;;;;;;;;2105893;28;20007;-45
2022/08/11 07:34:03;;;;;;;;;;;;;;;;;;2105894;28;20312;-45
2022/08/11 07:35:09;;;;;;;;;;;;;;;;;;2106113;28;19982;-46
2022/08/11 07:36:11;;;;;;;;;;;;;;;;;;2106052;28;20011;-46
2022/08/11 07:37:16;;;;;;;;;;;;;;;;;;2107663;28;20007;-46
2022/08/11 07:38:17;;;;;;;;;;;;;;;;;;2107440;28;20363;-45
2022/08/11 07:39:23;;;;;;;;;;;;;;;;;;2107363;28;20377;-45
2022/08/11 07:40:23;;;;;;;;;;;;;;;;;;2107569;28;20435;-45
2022/08/11 07:41:25;;;;;;;;;;;;;;;;;;2107785;28;19928;-47
2022/08/11 07:42:25;;;;;;;;;;;;;;;;;;2107557;28;19924;-47
2022/08/11 07:43:27;;;;;;;;;;;;;;;;;;2107267;28;19924;-46
2022/08/11 07:44:28;;;;;;;;;;;;;;;;;;2107375;28;19959;-45
2022/08/11 07:52:28;;;;;;;;;;;;;;;;;;2107418;28;20281;-46
2022/08/11 07:53:29;;;;;;;;;;;;;;;;;;2107702;28;19932;-45
2022/08/11 07:54:30;;;;;;;;;;;;;;;;;;2107167;28;20429;-47
2022/08/11 07:55:34;;;;;;;;;;;;;;;;;;2107503;28;19924;-45
2022/08/11 07:56:52;;;;;;;;;;;;;;;;;;2107175;28;20424;-45
2022/08/11 08:18:14;;;;;;;;;;;;;;;;;;2115788;28;19927;-47
2022/08/11 08:19:26;;;;;;;;;;;;;;;;;;2115372;28;20284;-46
2022/08/11 08:20:27;;;;;;;;;;;;;;;;;;2115763;28;19930;-48
2022/08/11 08:21:28;;;;;;;;;;;;;;;;;;2115508;28;19931;-46
2022/08/11 08:22:28;;;;;;;;;;;;;;;;;;2115571;28;19928;-48
2022/08/11 08:23:49;;;;;;;;;;;;;;;;;;2115681;28;19928;-49
2022/08/11 08:24:54;;;;;;;;;;;;;;;;;;2115366;28;19969;-46
2022/08/11 08:25:56;;;;;;;;;;;;;;;;;;2115689;28;19924;-47
2022/08/11 08:26:59;;;;;;;;;;;;;;;;;;2115904;28;20010;-45
2022/08/11 08:28:01;;;;;;;;;;;;;;;;;;2115518;28;19966;-45
2022/08/11 08:31:37;;;;;;;;;;;;;;;;;;2115451;28;20049;-46
2022/08/11 08:32:37;;;;;;;;;;;;;;;;;;2116010;28;19981;-47
2022/08/11 08:33:39;;;;;;;;;;;;;;;;;;2115534;28;20292;-46
2022/08/11 08:34:39;;;;;;;;;;;;;;;;;;2115792;28;19923;-45
2022/08/11 08:35:40;;;;;;;;;;;;;;;;;;2115316;28;20296;-46
2022/08/11 08:36:54;;;;;;;;;;;;;;;;;;2115874;28;20331;-46
2022/08/11 08:37:55;;;;;;;;;;;;;;;;;;2115227;28;19924;-47
2022/08/11 08:38:56;;;;;;;;;;;;;;;;;;2115264;28;19973;-47
2022/08/11 08:39:57;;;;;;;;;;;;;;;;;;2115613;28;19931;-47
2022/08/11 08:40:59;;;;;;;;;;;;;;;;;;2115776;28;20413;-45
2022/08/11 08:42:00;;;;;;;;;;;;;;;;;;2115559;28;19924;-46
2022/08/11 08:43:00;;;;;;;;;;;;;;;;;;2115279;28;19976;-47
2022/08/11 08:44:01;;;;;;;;;;;;;;;;;;2115354;28;19924;-47
2022/08/11 08:45:22;;;;;;;;;;;;;;;;;;2115754;28;20441;-47
2022/08/11 08:46:23;;;;;;;;;;;;;;;;;;2115073;28;19953;-45
2022/08/11 08:47:24;;;;;;;;;;;;;;;;;;2115273;27;20041;-46
2022/08/11 08:48:43;;;;;;;;;;;;;;;;;;2115590;28;19931;-47
2022/08/11 08:49:48;;;;;;;;;;;;;;;;;;2115282;28;19959;-46
2022/08/11 08:52:08;;;;;;;;;;;;;;;;;;2115381;28;20011;-47
2022/08/11 08:53:28;;;;;;;;;;;;;;;;;;2115538;28;19924;-45
2022/08/11 08:54:29;;;;;;;;;;;;;;;;;;2115303;28;19935;-46
2022/08/11 08:55:30;;;;;;;;;;;;;;;;;;2115148;28;19986;-46
2022/08/11 08:56:33;;;;;;;;;;;;;;;;;;2115484;28;19932;-48
2022/08/11 08:57:34;;;;;;;;;;;;;;;;;;2115191;28;20435;-46
2022/08/11 08:58:40;;;;;;;;;;;;;;;;;;2115618;28;20014;-46
2022/08/11 08:59:40;;;;;;;;;;;;;;;;;;2115350;28;19974;-45
2022/08/11 09:00:49;;;;;;;;;;;;;;;;;;2115192;28;19927;-46
2022/08/11 09:01:50;;;;;;;;;;;;;;;;;;2115372;28;19978;-47
2022/08/11 09:02:51;;;;;;;;;;;;;;;;;;2115294;28;19946;-46
2022/08/11 09:03:52;;;;;;;;;;;;;;;;;;2115651;28;20011;-45
2022/08/11 09:05:08;;;;;;;;;;;;;;;;;;2115082;28;19967;-45
2022/08/11 09:06:09;;;;;;;;;;;;;;;;;;2116027;28;20084;-45
2022/08/11 09:07:11;;;;;;;;;;;;;;;;;;2115048;28;20380;-45
2022/08/11 09:08:12;;;;;;;;;;;;;;;;;;2115134;28;20002;-47
2022/08/11 09:09:13;;;;;;;;;;;;;;;;;;2115376;28;20285;-46
2022/08/11 09:10:16;;;;;;;;;;;;;;;;;;2115759;28;20438;-45
2022/08/11 09:12:36;;;;;;;;;;;;;;;;;;2106803;28;20495;-47
2022/08/11 09:13:41;;;;;;;;;;;;;;;;;;2106709;28;19928;-46
2022/08/11 09:15:00;;;;;;;;;;;;;;;;;;2106935;28;19924;-47
2022/08/11 09:16:01;;;;;;;;;;;;;;;;;;2107212;28;19979;-47
2022/08/11 09:17:02;;;;;;;;;;;;;;;;;;2106610;28;19963;-47
2022/08/11 09:18:04;;;;;;;;;;;;;;;;;;2106723;28;20015;-47
2022/08/11 09:19:05;;;;;;;;;;;;;;;;;;2107014;28;20015;-46
2022/08/11 09:20:06;;;;;;;;;;;;;;;;;;2106482;28;20299;-47
2022/08/11 09:21:07;;;;;;;;;;;;;;;;;;2106716;28;20357;-47
2022/08/11 09:27:46;;;;;;;;;;;;;;;;;;2106552;28;20023;-46
2022/08/11 09:28:50;;;;;;;;;;;;;;;;;;2106584;28;20049;-47
2022/08/11 09:29:51;;;;;;;;;;;;;;;;;;2106928;28;19931;-46
2022/08/11 09:30:52;;;;;;;;;;;;;;;;;;2106702;28;20401;-45
2022/08/11 09:31:53;;;;;;;;;;;;;;;;;;2106615;28;19967;-47
2022/08/11 09:32:56;;;;;;;;;;;;;;;;;;2106816;28;19967;-49
2022/08/11 09:33:57;;;;;;;;;;;;;;;;;;2106724;28;20488;-46
2022/08/11 09:34:58;;;;;;;;;;;;;;;;;;2106622;28;19986;-47
2022/08/11 09:40:27;;;;;;;;;;;;;;;;;;2106604;28;19934;-47
2022/08/11 09:40:29;;;;;;;;;;;;;;;;;;2107135;28;20018;-49
2022/08/11 09:41:30;;;;;;;;;;;;;;;;;;2106665;28;19999;-46
2022/08/11 09:45:30;;;;;;;;;;;;;;;;;;2114878;28;19935;-47